Time;durP1;ratioP1;P1;durP2;ratioP2;P2;SDS_P1;SDS_P2;PMS_P1;PMS_P2;Temp;Humidity;BMP_temperature;BMP_pressure;BME280_temperature;BME280_humidity;BME280_pressure;Samples;Min_cycle;Max_cycle;Signal;HPM_P1;HPM_P2
2022/09/06 00:01:57;;;;;;;1.23;1.13;;;;;;;;;;5023694;28;20053;-73
2022/09/06 00:04:23;;;;;;;0.98;0.80;;;;;;;;;;5025960;28;20061;-73
2022/09/06 00:06:49;;;;;;;1.00;0.90;;;;;;;;;;5023819;28;20120;-73
2022/09/06 00:09:15;;;;;;;0.80;0.80;;;;;;;;;;5024875;28;20084;-74
2022/09/06 00:11:41;;;;;;;1.10;1.00;;;;;;;;;;5025023;28;20052;-73
2022/09/06 00:14:07;;;;;;;1.30;1.20;;;;;;;;;;5025533;28;20112;-74
2022/09/06 00:16:33;;;;;;;1.20;1.13;;;;;;;;;;5024619;28;20621;-73
2022/09/06 00:18:59;;;;;;;1.05;1.05;;;;;;;;;;5024273;28;20607;-73
2022/09/06 00:21:27;;;;;;;1.10;1.00;;;;;;;;;;5025525;28;20115;-73
2022/09/06 00:23:53;;;;;;;1.00;0.73;;;;;;;;;;5025485;28;20128;-73
2022/09/06 00:26:19;;;;;;;1.25;1.15;;;;;;;;;;5023757;28;20084;-73
2022/09/06 00:28:45;;;;;;;1.25;1.00;;;;;;;;;;5023393;28;20140;-73
2022/09/06 00:31:13;;;;;;;1.05;0.98;;;;;;;;;;5025740;28;20644;-73
2022/09/06 00:33:39;;;;;;;1.17;1.10;;;;;;;;;;5025950;28;20103;-73
2022/09/06 00:36:05;;;;;;;1.58;1.05;;;;;;;;;;5023864;28;20053;-73
2022/09/06 00:38:31;;;;;;;3.05;1.60;;;;;;;;;;5024147;28;20052;-73
2022/09/06 00:40:57;;;;;;;1.80;1.63;;;;;;;;;;5025256;28;20530;-73
2022/09/06 00:43:23;;;;;;;1.80;1.70;;;;;;;;;;5024905;28;20052;-73
2022/09/06 00:45:50;;;;;;;1.58;1.48;;;;;;;;;;5025032;28;20045;-73
2022/09/06 00:48:16;;;;;;;1.35;1.25;;;;;;;;;;5025496;28;20041;-73
2022/09/06 00:50:43;;;;;;;1.48;1.35;;;;;;;;;;5024948;28;20046;-74
2022/09/06 00:53:09;;;;;;;1.27;1.02;;;;;;;;;;5025607;28;20056;-73
2022/09/06 00:55:35;;;;;;;1.70;1.60;;;;;;;;;;5025965;28;20041;-73
2022/09/06 00:58:02;;;;;;;1.45;1.33;;;;;;;;;;5023092;28;20184;-73
2022/09/06 01:00:28;;;;;;;3.50;1.30;;;;;;;;;;5023897;28;20050;-73
2022/09/06 01:02:54;;;;;;;1.83;1.30;;;;;;;;;;5024771;28;20064;-73
2022/09/06 01:05:23;;;;;;;1.30;1.20;;;;;;;;;;5024325;28;20057;-73
2022/09/06 01:08:24;;;;;;;1.30;1.20;;;;;;;;;;5024908;28;20068;-73
2022/09/06 01:10:50;;;;;;;1.25;1.15;;;;;;;;;;4962791;28;20141;-73
2022/09/06 01:13:19;;;;;;;2.03;1.20;;;;;;;;;;5008025;28;20619;-73
2022/09/06 01:15:45;;;;;;;0.90;0.90;;;;;;;;;;5024974;28;20057;-73
2022/09/06 01:18:18;;;;;;;0.95;0.95;;;;;;;;;;5024409;28;20049;-74
2022/09/06 01:21:11;;;;;;;1.00;1.00;;;;;;;;;;5023942;28;20053;-73
2022/09/06 01:23:40;;;;;;;1.35;1.25;;;;;;;;;;4994973;28;20092;-73
2022/09/06 01:26:09;;;;;;;1.02;1.02;;;;;;;;;;5024869;28;20081;-74
2022/09/06 01:28:36;;;;;;;1.85;1.20;;;;;;;;;;5023747;28;20057;-73
2022/09/06 01:31:17;;;;;;;1.20;1.10;;;;;;;;;;5024831;28;20048;-73
2022/09/06 01:34:02;;;;;;;1.23;1.10;;;;;;;;;;5024013;28;20407;-73
2022/09/06 01:36:32;;;;;;;0.88;0.88;;;;;;;;;;5025140;28;20052;-73
2022/09/06 01:38:58;;;;;;;1.13;1.02;;;;;;;;;;5025903;28;20049;-73
2022/09/06 01:41:24;;;;;;;1.00;0.90;;;;;;;;;;5029040;28;20099;-73
2022/09/06 01:43:51;;;;;;;0.95;0.88;;;;;;;;;;5028507;28;20045;-74
2022/09/06 01:46:24;;;;;;;0.88;0.88;;;;;;;;;;5028174;28;20053;-74
2022/09/06 01:49:02;;;;;;;1.05;1.05;;;;;;;;;;5027023;28;20050;-74
2022/09/06 01:51:37;;;;;;;1.00;1.00;;;;;;;;;;5028803;28;20046;-73
2022/09/06 01:54:12;;;;;;;0.70;0.70;;;;;;;;;;5027833;28;20412;-73
2022/09/06 01:57:08;;;;;;;1.00;1.00;;;;;;;;;;5029114;28;20054;-73
2022/09/06 01:59:54;;;;;;;1.17;1.08;;;;;;;;;;5010293;28;20760;-74
2022/09/06 02:02:32;;;;;;;0.70;0.70;;;;;;;;;;5028602;28;20085;-73
2022/09/06 02:05:04;;;;;;;1.10;1.00;;;;;;;;;;5026527;28;20053;-73
2022/09/06 02:07:31;;;;;;;0.80;0.80;;;;;;;;;;5028088;28;20136;-73
2022/09/06 02:10:00;;;;;;;0.77;0.77;;;;;;;;;;5028019;28;20116;-73
2022/09/06 02:12:27;;;;;;;0.60;0.60;;;;;;;;;;5028497;28;20053;-73
2022/09/06 02:14:56;;;;;;;0.85;0.73;;;;;;;;;;5027121;28;20041;-73
2022/09/06 02:17:25;;;;;;;0.77;0.77;;;;;;;;;;5028169;28;20044;-73
2022/09/06 02:20:03;;;;;;;0.70;0.70;;;;;;;;;;5027789;28;20100;-74
2022/09/06 02:22:31;;;;;;;0.90;0.90;;;;;;;;;;5027371;28;20065;-73
2022/09/06 02:24:58;;;;;;;0.88;0.88;;;;;;;;;;5027817;28;20550;-73
2022/09/06 02:27:25;;;;;;;1.00;1.00;;;;;;;;;;5026042;28;20061;-73
2022/09/06 02:29:51;;;;;;;1.00;0.98;;;;;;;;;;5026561;28;20561;-73
2022/09/06 02:32:19;;;;;;;0.93;0.90;;;;;;;;;;5026635;28;20056;-73
2022/09/06 02:34:45;;;;;;;1.02;1.02;;;;;;;;;;5027112;28;20080;-73
2022/09/06 02:37:12;;;;;;;0.90;0.90;;;;;;;;;;5027009;28;20050;-73
2022/09/06 02:39:38;;;;;;;1.10;0.90;;;;;;;;;;5026821;28;20130;-73
2022/09/06 02:42:05;;;;;;;1.23;1.13;;;;;;;;;;5025241;28;20052;-73
2022/09/06 02:44:31;;;;;;;2.85;1.95;;;;;;;;;;5026813;28;20061;-73
2022/09/06 02:46:57;;;;;;;1.58;1.48;;;;;;;;;;5027223;28;20038;-73
2022/09/06 02:49:25;;;;;;;1.45;1.35;;;;;;;;;;5026464;28;20064;-73
2022/09/06 02:51:50;;;;;;;1.40;1.30;;;;;;;;;;5027331;28;20037;-73
2022/09/06 02:54:16;;;;;;;1.23;1.20;;;;;;;;;;5026282;28;20045;-73
2022/09/06 02:56:43;;;;;;;1.45;1.30;;;;;;;;;;5026789;28;20048;-73
2022/09/06 02:59:09;;;;;;;1.45;1.35;;;;;;;;;;5027515;28;20489;-73
2022/09/06 03:01:35;;;;;;;1.77;1.13;;;;;;;;;;5027140;28;20102;-72
2022/09/06 03:04:01;;;;;;;1.17;1.17;;;;;;;;;;5026298;28;20519;-73
2022/09/06 03:06:27;;;;;;;1.42;1.33;;;;;;;;;;5026057;28;20060;-73
2022/09/06 03:08:53;;;;;;;1.42;1.33;;;;;;;;;;5027051;28;20041;-73
2022/09/06 03:11:19;;;;;;;1.90;1.38;;;;;;;;;;5025563;28;20048;-73
2022/09/06 03:13:45;;;;;;;1.30;1.20;;;;;;;;;;5026784;28;20136;-73
2022/09/06 03:16:11;;;;;;;1.10;1.10;;;;;;;;;;5027039;28;20053;-73
2022/09/06 03:18:37;;;;;;;1.50;1.40;;;;;;;;;;5026971;28;20482;-73
2022/09/06 03:21:03;;;;;;;1.45;1.35;;;;;;;;;;5025411;28;20047;-73
2022/09/06 03:23:29;;;;;;;1.40;1.30;;;;;;;;;;5025725;28;20068;-73
2022/09/06 03:25:55;;;;;;;1.48;1.38;;;;;;;;;;5024890;28;20080;-73
2022/09/06 03:28:22;;;;;;;0.98;0.98;;;;;;;;;;5025517;28;20045;-73
2022/09/06 03:30:49;;;;;;;0.85;0.85;;;;;;;;;;5024632;28;20092;-73
2022/09/06 03:33:15;;;;;;;1.38;1.27;;;;;;;;;;5027049;28;20065;-73
2022/09/06 03:35:47;;;;;;;1.33;1.27;;;;;;;;;;5025427;28;20053;-73
2022/09/06 03:38:13;;;;;;;1.20;1.20;;;;;;;;;;5026193;28;20049;-73
2022/09/06 03:40:39;;;;;;;1.02;1.02;;;;;;;;;;5027279;28;20041;-73
2022/09/06 03:43:05;;;;;;;1.30;1.20;;;;;;;;;;5026489;28;20041;-73
2022/09/06 03:45:30;;;;;;;0.95;0.95;;;;;;;;;;5023954;28;20041;-73
2022/09/06 03:47:56;;;;;;;1.33;1.23;;;;;;;;;;5026063;28;20111;-74
2022/09/06 03:50:22;;;;;;;1.10;1.10;;;;;;;;;;5026740;28;20494;-74
2022/09/06 03:52:48;;;;;;;1.45;1.35;;;;;;;;;;5025564;28;20107;-73
2022/09/06 03:55:14;;;;;;;1.52;1.38;;;;;;;;;;5025134;28;20045;-74
2022/09/06 03:57:40;;;;;;;1.27;1.17;;;;;;;;;;5026099;28;20545;-73
2022/09/06 04:00:07;;;;;;;1.50;1.40;;;;;;;;;;5025700;28;20060;-73
2022/09/06 04:02:33;;;;;;;1.63;1.52;;;;;;;;;;5025412;28;20045;-73
2022/09/06 04:04:59;;;;;;;1.05;1.05;;;;;;;;;;5025723;28;20053;-72
2022/09/06 04:07:25;;;;;;;1.45;1.35;;;;;;;;;;5025454;28;20584;-73
2022/09/06 04:09:51;;;;;;;1.25;1.20;;;;;;;;;;5025059;28;20045;-73
2022/09/06 04:12:17;;;;;;;1.40;1.30;;;;;;;;;;5024918;28;20203;-73
2022/09/06 04:14:43;;;;;;;1.42;1.33;;;;;;;;;;5024050;28;20126;-72
2022/09/06 04:17:09;;;;;;;1.48;1.38;;;;;;;;;;5026423;28;20402;-73
2022/09/06 04:19:34;;;;;;;1.33;1.23;;;;;;;;;;5024717;28;20659;-72
2022/09/06 04:22:00;;;;;;;1.10;1.10;;;;;;;;;;5024771;28;20136;-73
2022/09/06 04:24:26;;;;;;;1.30;1.20;;;;;;;;;;5023676;28;20432;-73
2022/09/06 04:26:52;;;;;;;1.25;1.15;;;;;;;;;;5022569;28;20124;-72
2022/09/06 04:29:18;;;;;;;1.90;1.80;;;;;;;;;;5022171;28;20044;-73
2022/09/06 04:31:44;;;;;;;1.90;1.80;;;;;;;;;;5023989;28;20073;-73
2022/09/06 04:34:10;;;;;;;2.00;1.85;;;;;;;;;;5023774;28;20041;-73
2022/09/06 04:36:36;;;;;;;2.40;2.30;;;;;;;;;;5024633;28;20431;-73
2022/09/06 04:39:02;;;;;;;2.03;1.92;;;;;;;;;;5023779;28;20404;-73
2022/09/06 04:41:28;;;;;;;1.88;1.77;;;;;;;;;;5021986;28;20041;-73
2022/09/06 04:43:54;;;;;;;2.25;2.05;;;;;;;;;;5021129;28;20049;-73
2022/09/06 04:46:20;;;;;;;1.95;1.85;;;;;;;;;;5016669;28;20048;-73
2022/09/06 04:48:47;;;;;;;2.53;1.85;;;;;;;;;;5018582;28;20403;-73
2022/09/06 04:51:13;;;;;;;2.00;1.65;;;;;;;;;;5022600;28;20037;-73
2022/09/06 04:53:39;;;;;;;2.60;2.40;;;;;;;;;;5024408;28;20041;-73
2022/09/06 04:56:06;;;;;;;2.30;2.20;;;;;;;;;;5022265;28;21549;-73
2022/09/06 04:58:32;;;;;;;1.80;1.70;;;;;;;;;;5024069;28;20121;-73
2022/09/06 05:00:58;;;;;;;1.88;1.77;;;;;;;;;;5023446;28;20037;-73
2022/09/06 05:03:24;;;;;;;2.65;1.60;;;;;;;;;;5019334;28;20472;-73
2022/09/06 05:05:50;;;;;;;1.42;1.33;;;;;;;;;;5021299;28;20053;-73
2022/09/06 05:08:16;;;;;;;1.45;1.35;;;;;;;;;;5024469;28;20041;-73
2022/09/06 05:10:42;;;;;;;1.27;1.17;;;;;;;;;;5023783;28;20400;-73
2022/09/06 05:13:08;;;;;;;1.30;1.20;;;;;;;;;;5024234;28;20076;-72
2022/09/06 05:15:34;;;;;;;1.27;1.20;;;;;;;;;;5023335;28;20049;-73
2022/09/06 05:18:05;;;;;;;1.40;1.30;;;;;;;;;;5021960;28;20057;-73
2022/09/06 05:20:31;;;;;;;5.00;1.50;;;;;;;;;;5022674;28;20142;-73
2022/09/06 05:22:57;;;;;;;1.85;1.52;;;;;;;;;;5021870;28;20152;-72
2022/09/06 05:25:23;;;;;;;1.50;1.40;;;;;;;;;;5022792;28;20041;-73
2022/09/06 05:27:49;;;;;;;1.17;1.10;;;;;;;;;;5024121;28;20052;-73
2022/09/06 05:30:16;;;;;;;1.50;1.40;;;;;;;;;;5023944;28;20045;-73
2022/09/06 05:32:42;;;;;;;1.20;1.17;;;;;;;;;;5024684;28;20046;-73
2022/09/06 05:35:09;;;;;;;1.60;1.50;;;;;;;;;;5022848;28;20502;-72
2022/09/06 05:37:35;;;;;;;1.45;1.35;;;;;;;;;;5024222;28;20276;-74
2022/09/06 05:40:01;;;;;;;1.52;1.42;;;;;;;;;;5022333;28;20049;-73
2022/09/06 05:42:27;;;;;;;1.63;1.50;;;;;;;;;;5024205;28;20054;-74
2022/09/06 05:44:53;;;;;;;1.33;1.23;;;;;;;;;;5023015;28;20111;-74
2022/09/06 05:47:19;;;;;;;1.90;1.70;;;;;;;;;;5020473;28;20046;-74
2022/09/06 05:49:45;;;;;;;1.50;1.40;;;;;;;;;;5018866;28;20153;-74
2022/09/06 05:52:11;;;;;;;1.40;1.30;;;;;;;;;;5022701;28;20041;-74
2022/09/06 05:54:37;;;;;;;1.30;1.20;;;;;;;;;;5023887;28;20057;-74
2022/09/06 05:57:03;;;;;;;1.50;1.40;;;;;;;;;;5022964;28;20507;-72
2022/09/06 05:59:29;;;;;;;1.70;1.60;;;;;;;;;;5021445;28;20045;-72
2022/09/06 06:01:55;;;;;;;1.90;1.80;;;;;;;;;;5022777;28;20065;-72
2022/09/06 06:04:22;;;;;;;1.80;1.70;;;;;;;;;;5023338;28;20484;-71
2022/09/06 06:06:48;;;;;;;1.50;1.40;;;;;;;;;;5020938;28;20077;-72
2022/09/06 06:09:14;;;;;;;1.50;1.40;;;;;;;;;;5023269;28;20056;-72
2022/09/06 06:11:40;;;;;;;1.50;1.40;;;;;;;;;;5022845;28;20058;-72
2022/09/06 06:14:06;;;;;;;1.45;1.35;;;;;;;;;;5021255;28;20230;-72
2022/09/06 06:16:32;;;;;;;1.20;1.20;;;;;;;;;;5022672;28;20111;-72
2022/09/06 06:18:58;;;;;;;1.70;1.60;;;;;;;;;;5020631;28;20498;-72
2022/09/06 06:21:29;;;;;;;1.25;1.25;;;;;;;;;;5021331;28;20057;-72
2022/09/06 06:23:59;;;;;;;1.48;1.38;;;;;;;;;;5020952;28;20104;-72
2022/09/06 06:26:26;;;;;;;1.70;1.60;;;;;;;;;;5026571;28;20038;-72
2022/09/06 06:28:52;;;;;;;1.70;1.60;;;;;;;;;;5024136;28;20037;-72
2022/09/06 06:31:21;;;;;;;1.40;1.30;;;;;;;;;;5025151;28;20502;-72
2022/09/06 06:33:47;;;;;;;1.55;1.45;;;;;;;;;;5023698;28;20045;-72
2022/09/06 06:36:13;;;;;;;1.90;1.80;;;;;;;;;;5024627;28;20049;-72
2022/09/06 06:38:40;;;;;;;1.70;1.60;;;;;;;;;;5026905;28;20049;-72
2022/09/06 06:41:07;;;;;;;1.77;1.67;;;;;;;;;;5024532;28;20092;-71
2022/09/06 06:43:36;;;;;;;2.13;2.03;;;;;;;;;;5025653;28;20041;-72
2022/09/06 06:46:03;;;;;;;1.90;1.80;;;;;;;;;;5021917;28;20499;-72
2022/09/06 06:48:29;;;;;;;1.83;1.70;;;;;;;;;;5018877;28;20565;-73
2022/09/06 06:50:55;;;;;;;2.50;2.30;;;;;;;;;;5027544;28;20053;-72
2022/09/06 06:53:21;;;;;;;2.40;2.20;;;;;;;;;;5027818;28;20041;-73
2022/09/06 06:55:47;;;;;;;2.80;2.30;;;;;;;;;;5025827;28;20133;-73
2022/09/06 06:58:17;;;;;;;1.90;1.80;;;;;;;;;;5026433;28;20330;-73
2022/09/06 07:00:44;;;;;;;2.65;2.45;;;;;;;;;;5026290;28;20531;-72
2022/09/06 07:03:10;;;;;;;2.22;2.10;;;;;;;;;;5025780;28;20081;-72
2022/09/06 07:05:36;;;;;;;2.08;1.98;;;;;;;;;;5019989;28;20049;-73
2022/09/06 07:08:03;;;;;;;3.80;3.50;;;;;;;;;;5018828;28;20045;-73
2022/09/06 07:10:29;;;;;;;4.35;4.05;;;;;;;;;;5025029;28;20272;-72
2022/09/06 07:12:55;;;;;;;3.80;3.60;;;;;;;;;;5024898;28;20096;-72
2022/09/06 07:15:21;;;;;;;5.22;4.82;;;;;;;;;;5026742;28;20080;-73
2022/09/06 07:17:47;;;;;;;5.20;4.90;;;;;;;;;;5024296;28;20049;-73
2022/09/06 07:20:13;;;;;;;4.97;4.53;;;;;;;;;;5027315;28;20052;-73
2022/09/06 07:22:39;;;;;;;5.00;4.57;;;;;;;;;;5026303;28;20046;-73
2022/09/06 07:25:06;;;;;;;5.90;5.40;;;;;;;;;;5018871;28;20499;-76
2022/09/06 07:27:32;;;;;;;4.50;4.20;;;;;;;;;;5023893;28;20525;-67
2022/09/06 07:29:58;;;;;;;4.22;3.92;;;;;;;;;;5026174;28;20060;-65
2022/09/06 07:32:24;;;;;;;5.00;4.60;;;;;;;;;;5027007;28;20427;-66
2022/09/06 07:34:50;;;;;;;5.03;4.63;;;;;;;;;;5026616;28;20045;-68
2022/09/06 07:37:16;;;;;;;4.63;4.22;;;;;;;;;;5024734;28;20048;-68
2022/09/06 07:39:43;;;;;;;5.30;4.80;;;;;;;;;;5026854;28;20046;-75
2022/09/06 07:42:09;;;;;;;5.10;4.72;;;;;;;;;;5025018;28;20500;-76
2022/09/06 07:44:35;;;;;;;5.35;4.95;;;;;;;;;;5025280;28;20180;-76
2022/09/06 07:47:05;;;;;;;5.40;4.90;;;;;;;;;;5025389;28;20517;-77
2022/09/06 07:49:31;;;;;;;4.88;4.50;;;;;;;;;;5025709;28;20057;-81
2022/09/06 07:51:57;;;;;;;3.75;3.45;;;;;;;;;;5025316;28;20136;-76
2022/09/06 07:54:23;;;;;;;5.25;4.57;;;;;;;;;;5023432;28;20046;-76
2022/09/06 07:56:49;;;;;;;5.53;5.10;;;;;;;;;;5024045;28;20037;-76
2022/09/06 07:59:15;;;;;;;4.47;4.07;;;;;;;;;;5017884;28;20050;-76
2022/09/06 08:01:41;;;;;;;5.82;5.32;;;;;;;;;;5021095;28;20053;-68
2022/09/06 08:04:08;;;;;;;5.82;5.43;;;;;;;;;;5026250;28;20085;-76
2022/09/06 08:06:39;;;;;;;6.93;6.32;;;;;;;;;;5024769;28;20373;-75
2022/09/06 08:09:08;;;;;;;6.13;5.63;;;;;;;;;;5026213;28;20418;-77
2022/09/06 08:11:35;;;;;;;5.90;5.40;;;;;;;;;;5025469;28;20183;-76
2022/09/06 08:14:02;;;;;;;4.90;4.60;;;;;;;;;;5023191;28;20052;-77
2022/09/06 08:16:29;;;;;;;5.43;4.53;;;;;;;;;;5019733;28;20049;-77
2022/09/06 08:19:07;;;;;;;4.97;4.57;;;;;;;;;;5025858;28;20045;-77
2022/09/06 08:21:33;;;;;;;4.45;4.15;;;;;;;;;;5025015;28;20710;-76
2022/09/06 08:24:01;;;;;;;4.57;4.20;;;;;;;;;;5024748;28;20057;-76
2022/09/06 08:26:28;;;;;;;4.30;4.00;;;;;;;;;;5024001;28;20547;-76
2022/09/06 08:28:56;;;;;;;5.40;5.00;;;;;;;;;;5024503;28;20045;-76
2022/09/06 08:31:22;;;;;;;4.32;4.03;;;;;;;;;;5023489;28;20041;-77
2022/09/06 08:33:48;;;;;;;5.05;4.65;;;;;;;;;;5023434;28;20057;-75
2022/09/06 08:36:14;;;;;;;4.90;4.50;;;;;;;;;;5024076;28;20065;-76
2022/09/06 08:38:40;;;;;;;4.93;4.50;;;;;;;;;;5025758;28;20052;-75
2022/09/06 08:41:16;;;;;;;4.70;4.20;;;;;;;;;;5024214;28;20049;-75
2022/09/06 08:43:53;;;;;;;4.57;4.28;;;;;;;;;;5024812;28;20050;-75
2022/09/06 08:46:19;;;;;;;4.07;3.78;;;;;;;;;;5024524;28;20118;-76
2022/09/06 08:48:45;;;;;;;3.75;3.53;;;;;;;;;;5024448;28;20500;-77
2022/09/06 08:51:30;;;;;;;4.80;4.40;;;;;;;;;;5024252;28;20056;-77
2022/09/06 08:53:59;;;;;;;4.30;3.97;;;;;;;;;;5020345;28;20120;-74
2022/09/06 08:56:33;;;;;;;3.67;3.47;;;;;;;;;;5014336;28;20145;-75
2022/09/06 08:59:06;;;;;;;5.65;4.43;;;;;;;;;;5004260;28;20053;-75
2022/09/06 09:01:56;;;;;;;4.15;3.78;;;;;;;;;;5006366;28;20625;-74
2022/09/06 09:04:24;;;;;;;3.90;3.70;;;;;;;;;;5021805;28;20061;-76
2022/09/06 09:06:51;;;;;;;3.13;2.92;;;;;;;;;;5021214;28;20512;-77
2022/09/06 09:09:17;;;;;;;4.60;3.67;;;;;;;;;;5023047;28;20045;-78
2022/09/06 09:11:46;;;;;;;4.15;3.85;;;;;;;;;;5019514;28;20091;-76
2022/09/06 09:14:20;;;;;;;5.25;4.85;;;;;;;;;;5023990;28;20050;-76
2022/09/06 09:16:50;;;;;;;5.25;3.80;;;;;;;;;;5023128;28;20033;-77
2022/09/06 09:19:16;;;;;;;3.85;3.55;;;;;;;;;;5023830;28;20049;-76
2022/09/06 09:21:42;;;;;;;2.95;2.67;;;;;;;;;;5022903;28;20132;-76
2022/09/06 09:24:10;;;;;;;3.38;3.08;;;;;;;;;;5023979;28;20045;-76
2022/09/06 09:26:56;;;;;;;3.65;3.28;;;;;;;;;;5025711;28;20033;-77
2022/09/06 09:29:22;;;;;;;4.80;4.40;;;;;;;;;;5022023;28;20046;-76
2022/09/06 09:31:50;;;;;;;4.80;4.50;;;;;;;;;;5022859;28;20511;-76
2022/09/06 09:34:28;;;;;;;3.55;3.35;;;;;;;;;;5024652;28;20052;-76
2022/09/06 09:37:11;;;;;;;4.78;4.38;;;;;;;;;;5022811;28;20049;-76
2022/09/06 09:39:38;;;;;;;4.20;3.80;;;;;;;;;;5025685;28;20107;-76
2022/09/06 09:42:04;;;;;;;5.05;4.63;;;;;;;;;;5023803;28;20052;-77
2022/09/06 09:44:30;;;;;;;5.18;4.78;;;;;;;;;;5022433;28;20045;-75
2022/09/06 09:46:56;;;;;;;4.60;4.20;;;;;;;;;;5024683;28;20441;-74
2022/09/06 09:49:25;;;;;;;4.88;4.47;;;;;;;;;;5021696;28;20037;-75
2022/09/06 09:52:06;;;;;;;6.07;3.90;;;;;;;;;;5022867;28;20211;-75
2022/09/06 09:54:35;;;;;;;4.68;3.42;;;;;;;;;;5023964;28;20041;-75
2022/09/06 09:57:01;;;;;;;3.88;3.58;;;;;;;;;;5022980;28;20557;-76
2022/09/06 09:59:36;;;;;;;3.60;3.40;;;;;;;;;;5025365;28;20045;-75
2022/09/06 10:02:15;;;;;;;4.30;4.00;;;;;;;;;;5025037;28;20053;-76
2022/09/06 10:04:46;;;;;;;3.67;3.38;;;;;;;;;;5025693;28;20084;-75
2022/09/06 10:07:14;;;;;;;3.40;3.20;;;;;;;;;;5025512;28;20049;-74
2022/09/06 10:09:42;;;;;;;4.10;3.80;;;;;;;;;;5019587;28;20045;-75
2022/09/06 10:12:08;;;;;;;6.18;3.85;;;;;;;;;;5027802;28;20041;-74
2022/09/06 10:14:45;;;;;;;3.88;3.30;;;;;;;;;;5027765;28;20114;-75
2022/09/06 10:17:19;;;;;;;3.55;3.30;;;;;;;;;;5042478;28;20107;-74
2022/09/06 10:19:46;;;;;;;4.15;3.67;;;;;;;;;;5035371;28;20053;-74
2022/09/06 10:22:12;;;;;;;3.58;3.30;;;;;;;;;;5026605;28;20053;-74
2022/09/06 10:24:49;;;;;;;5.43;3.95;;;;;;;;;;5027696;28;20048;-74
2022/09/06 10:27:20;;;;;;;5.35;4.10;;;;;;;;;;5026233;28;20103;-73
2022/09/06 10:29:57;;;;;;;5.35;4.28;;;;;;;;;;5027339;28;20074;-74
2022/09/06 10:32:26;;;;;;;4.10;3.80;;;;;;;;;;5015919;28;20091;-74
2022/09/06 10:34:55;;;;;;;4.53;4.20;;;;;;;;;;5024008;28;20135;-75
2022/09/06 10:37:27;;;;;;;8.05;4.47;;;;;;;;;;5025083;28;20041;-74
2022/09/06 10:40:08;;;;;;;4.40;4.00;;;;;;;;;;5023762;28;20041;-74
2022/09/06 10:42:34;;;;;;;4.50;4.20;;;;;;;;;;5026319;28;20128;-75
2022/09/06 10:45:06;;;;;;;3.55;3.35;;;;;;;;;;5024688;28;20137;-74
2022/09/06 10:47:38;;;;;;;3.15;2.95;;;;;;;;;;5023612;28;20407;-74
2022/09/06 10:50:04;;;;;;;3.97;3.72;;;;;;;;;;5024690;28;20069;-74
2022/09/06 10:52:40;;;;;;;5.60;4.03;;;;;;;;;;5026770;28;20045;-74
2022/09/06 10:55:10;;;;;;;3.08;2.88;;;;;;;;;;5023618;28;20065;-74
2022/09/06 10:57:40;;;;;;;3.75;3.45;;;;;;;;;;5026733;28;20132;-74
2022/09/06 11:00:12;;;;;;;4.18;3.88;;;;;;;;;;5024805;28;20126;-74
2022/09/06 11:02:56;;;;;;;4.82;4.43;;;;;;;;;;5025586;28;20056;-74
2022/09/06 11:05:26;;;;;;;5.25;3.85;;;;;;;;;;5024844;28;20049;-74
2022/09/06 11:08:07;;;;;;;4.05;3.85;;;;;;;;;;5023436;28;20136;-74
2022/09/06 11:10:39;;;;;;;8.88;3.92;;;;;;;;;;5023089;28;20050;-74
2022/09/06 11:13:15;;;;;;;3.63;3.42;;;;;;;;;;5026001;28;20614;-74
2022/09/06 11:15:54;;;;;;;3.65;3.40;;;;;;;;;;5023995;28;20053;-74
2022/09/06 11:18:32;;;;;;;2.88;2.67;;;;;;;;;;5025780;28;20060;-74
2022/09/06 11:21:04;;;;;;;3.00;2.80;;;;;;;;;;5023752;28;20053;-74
2022/09/06 11:23:49;;;;;;;6.13;5.45;;;;;;;;;;5023976;28;20403;-74
2022/09/06 11:26:27;;;;;;;4.72;4.43;;;;;;;;;;5024271;28;20481;-74
2022/09/06 11:28:58;;;;;;;4.68;4.38;;;;;;;;;;5024097;28;20076;-76
2022/09/06 11:31:34;;;;;;;3.92;3.63;;;;;;;;;;5020955;28;20115;-75
2022/09/06 11:34:11;;;;;;;4.43;4.05;;;;;;;;;;5020777;28;20049;-75
2022/09/06 11:36:39;;;;;;;4.05;2.97;;;;;;;;;;5022667;28;20416;-75
2022/09/06 11:39:07;;;;;;;3.95;3.65;;;;;;;;;;5021263;28;20422;-75
2022/09/06 11:41:34;;;;;;;4.03;3.60;;;;;;;;;;5022136;28;20049;-74
2022/09/06 11:44:01;;;;;;;4.07;3.78;;;;;;;;;;5023313;28;20096;-74
2022/09/06 11:46:33;;;;;;;3.42;3.22;;;;;;;;;;5025369;28;20049;-73
2022/09/06 11:49:10;;;;;;;3.78;3.58;;;;;;;;;;5023091;28;20049;-74
2022/09/06 11:51:37;;;;;;;4.18;3.65;;;;;;;;;;5015899;28;20122;-74
2022/09/06 11:54:20;;;;;;;4.63;4.32;;;;;;;;;;5022996;28;20424;-74
2022/09/06 11:56:46;;;;;;;4.05;3.72;;;;;;;;;;5024306;28;20053;-75
2022/09/06 11:59:12;;;;;;;4.25;3.40;;;;;;;;;;5020929;28;20056;-74
2022/09/06 12:01:39;;;;;;;3.47;3.17;;;;;;;;;;5020730;28;20080;-74
2022/09/06 12:04:06;;;;;;;5.38;4.20;;;;;;;;;;5023328;28;20747;-74
2022/09/06 12:06:34;;;;;;;4.63;3.35;;;;;;;;;;5025006;28;20050;-74
2022/09/06 12:09:00;;;;;;;4.65;4.22;;;;;;;;;;5024489;28;20060;-75
2022/09/06 12:11:35;;;;;;;5.63;3.85;;;;;;;;;;5024522;28;20112;-74
2022/09/06 12:14:19;;;;;;;4.47;3.30;;;;;;;;;;5021885;28;20052;-74
2022/09/06 12:16:57;;;;;;;3.63;3.42;;;;;;;;;;5023262;28;20049;-69
2022/09/06 12:19:43;;;;;;;3.35;3.15;;;;;;;;;;5017854;28;20045;-74
2022/09/06 12:22:28;;;;;;;3.30;3.10;;;;;;;;;;5020233;28;20541;-74
2022/09/06 12:25:15;;;;;;;4.07;3.33;;;;;;;;;;5024843;28;20107;-73
2022/09/06 12:27:53;;;;;;;4.07;3.45;;;;;;;;;;5025014;28;20034;-73
2022/09/06 12:30:40;;;;;;;3.97;3.53;;;;;;;;;;5024573;28;20045;-73
2022/09/06 12:33:21;;;;;;;3.42;3.22;;;;;;;;;;5022256;28;20538;-73
2022/09/06 12:35:47;;;;;;;3.17;2.97;;;;;;;;;;5019609;28;20080;-73
2022/09/06 12:38:15;;;;;;;3.85;3.55;;;;;;;;;;5022402;28;20052;-73
2022/09/06 12:40:46;;;;;;;4.22;3.30;;;;;;;;;;5024031;28;20060;-74
2022/09/06 12:43:13;;;;;;;3.08;2.88;;;;;;;;;;5022244;28;20053;-74
2022/09/06 12:45:50;;;;;;;3.47;3.17;;;;;;;;;;5020927;28;20049;-74
2022/09/06 12:48:29;;;;;;;3.60;3.10;;;;;;;;;;5014132;28;20048;-74
2022/09/06 12:51:02;;;;;;;6.28;3.78;;;;;;;;;;5018482;28;20145;-73
2022/09/06 12:53:30;;;;;;;3.30;3.00;;;;;;;;;;5022120;28;20049;-74
2022/09/06 12:56:25;;;;;;;2.85;2.65;;;;;;;;;;5024589;28;20041;-73
2022/09/06 12:58:51;;;;;;;3.20;2.90;;;;;;;;;;5006146;28;20066;-73
2022/09/06 13:01:25;;;;;;;3.50;3.20;;;;;;;;;;5024068;28;20499;-73
2022/09/06 13:03:57;;;;;;;4.75;3.20;;;;;;;;;;5023255;28;20076;-73
2022/09/06 13:06:24;;;;;;;3.30;3.10;;;;;;;;;;5023191;28;20689;-74
2022/09/06 13:08:52;;;;;;;3.78;3.47;;;;;;;;;;5022663;28;20472;-74
2022/09/06 13:11:30;;;;;;;2.95;2.75;;;;;;;;;;5023057;28;20610;-78
2022/09/06 13:13:56;;;;;;;3.35;3.05;;;;;;;;;;5024514;28;20381;-76
2022/09/06 13:16:35;;;;;;;2.60;2.40;;;;;;;;;;5022632;28;20522;-76
2022/09/06 13:19:17;;;;;;;3.83;2.78;;;;;;;;;;5022682;28;20444;-76
2022/09/06 13:21:44;;;;;;;2.20;2.10;;;;;;;;;;5023296;28;20131;-75
2022/09/06 13:24:38;;;;;;;2.60;2.40;;;;;;;;;;5022887;28;20435;-75
2022/09/06 13:27:22;;;;;;;3.33;3.13;;;;;;;;;;5019507;28;20057;-75
2022/09/06 13:29:55;;;;;;;2.95;2.75;;;;;;;;;;5018276;28;20068;-75
2022/09/06 13:32:21;;;;;;;2.92;2.42;;;;;;;;;;5023028;28;20045;-75
2022/09/06 13:34:55;;;;;;;5.53;2.90;;;;;;;;;;5026011;28;20130;-74
2022/09/06 13:37:21;;;;;;;3.70;2.97;;;;;;;;;;5026210;28;20065;-75
2022/09/06 13:39:47;;;;;;;3.75;3.45;;;;;;;;;;5026962;28;20037;-75
2022/09/06 13:42:23;;;;;;;2.95;2.75;;;;;;;;;;5028501;28;20432;-74
2022/09/06 13:44:49;;;;;;;2.63;2.42;;;;;;;;;;5027720;28;20046;-74
2022/09/06 13:47:15;;;;;;;3.97;3.00;;;;;;;;;;5028096;28;20522;-75
2022/09/06 13:49:42;;;;;;;2.58;2.38;;;;;;;;;;5026424;28;20052;-75
2022/09/06 13:52:08;;;;;;;3.95;3.13;;;;;;;;;;5027034;28;20060;-75
2022/09/06 13:54:34;;;;;;;3.45;3.15;;;;;;;;;;5028142;28;20365;-75
2022/09/06 13:57:03;;;;;;;3.60;2.55;;;;;;;;;;5027468;28;20124;-75
2022/09/06 13:59:30;;;;;;;2.58;2.38;;;;;;;;;;5028097;28;20436;-75
2022/09/06 14:02:06;;;;;;;3.50;2.22;;;;;;;;;;5027614;28;20045;-75
2022/09/06 14:04:32;;;;;;;2.08;1.98;;;;;;;;;;5027469;28;20057;-75
2022/09/06 14:06:58;;;;;;;1.80;1.70;;;;;;;;;;5027988;28;20543;-75
2022/09/06 14:09:24;;;;;;;1.67;1.58;;;;;;;;;;5027903;28;20056;-73
2022/09/06 14:11:50;;;;;;;1.70;1.60;;;;;;;;;;5025972;28;20124;-74
2022/09/06 14:14:16;;;;;;;1.95;1.70;;;;;;;;;;5022651;28;20092;-74
2022/09/06 14:16:42;;;;;;;1.92;1.83;;;;;;;;;;5017529;28;20492;-74
2022/09/06 14:19:09;;;;;;;1.60;1.50;;;;;;;;;;5006988;28;20369;-75
2022/09/06 14:21:35;;;;;;;1.60;1.50;;;;;;;;;;5028139;28;20084;-75
2022/09/06 14:24:01;;;;;;;1.80;1.70;;;;;;;;;;5026033;28;20045;-75
2022/09/06 14:26:27;;;;;;;1.33;1.23;;;;;;;;;;5021285;28;20270;-74
2022/09/06 14:28:54;;;;;;;2.30;1.23;;;;;;;;;;5016718;28;20049;-74
2022/09/06 14:31:21;;;;;;;1.33;1.30;;;;;;;;;;5006996;28;20415;-74
2022/09/06 14:33:47;;;;;;;1.45;1.20;;;;;;;;;;5017909;28;20053;-74
2022/09/06 14:36:17;;;;;;;1.25;1.15;;;;;;;;;;5025197;28;20052;-74
2022/09/06 14:38:44;;;;;;;1.50;1.40;;;;;;;;;;5019130;28;20045;-74
2022/09/06 14:41:13;;;;;;;1.38;1.27;;;;;;;;;;5024751;28;20049;-74
2022/09/06 14:43:39;;;;;;;1.40;1.30;;;;;;;;;;5026233;28;20042;-74
2022/09/06 14:46:06;;;;;;;1.60;1.50;;;;;;;;;;5023917;28;20099;-74
2022/09/06 14:48:32;;;;;;;1.20;1.10;;;;;;;;;;5027105;28;20033;-74
2022/09/06 14:51:05;;;;;;;1.73;1.60;;;;;;;;;;5022534;28;20099;-74
2022/09/06 14:53:31;;;;;;;1.75;1.63;;;;;;;;;;5015037;28;20092;-74
2022/09/06 14:56:02;;;;;;;1.60;1.50;;;;;;;;;;5017520;28;20056;-74